Time;durP1;ratioP1;P1;durP2;ratioP2;P2;SDS_P1;SDS_P2;PMS_P1;PMS_P2;Temp;Humidity;BMP_temperature;BMP_pressure;BME280_temperature;BME280_humidity;BME280_pressure;Samples;Min_cycle;Max_cycle;Signal;HPM_P1;HPM_P2
2024/01/30 00:00:50;;;;;;;5.63;3.73;;;;;;;17.23;50.87;102410.69;10411583;28;20353;-61
2024/01/30 00:05:51;;;;;;;4.88;3.53;;;;;;;17.23;51.95;102408.00;10409891;28;20323;-61
2024/01/30 00:10:51;;;;;;;5.83;4.00;;;;;;;17.22;51.33;102411.75;10423767;28;20063;-61
2024/01/30 00:15:51;;;;;;;3.50;2.70;;;;;;;17.21;51.99;102410.94;10410134;28;20806;-61
2024/01/30 00:20:51;;;;;;;6.20;3.97;;;;;;;17.22;51.17;102414.44;10410949;28;20292;-61
2024/01/30 00:25:52;;;;;;;4.70;3.60;;;;;;;17.23;51.33;102416.06;10409851;28;20295;-61
2024/01/30 00:30:52;;;;;;;5.57;3.50;;;;;;;17.22;50.92;102406.38;10409263;28;20280;-61
2024/01/30 00:35:52;;;;;;;5.03;3.60;;;;;;;17.22;52.27;102411.75;10409451;28;20272;-61
2024/01/30 00:40:53;;;;;;;4.30;3.23;;;;;;;17.22;51.29;102406.38;10410093;28;20287;-62
2024/01/30 00:45:53;;;;;;;4.73;3.40;;;;;;;17.23;51.44;102406.13;10409643;28;20287;-61
2024/01/30 00:50:54;;;;;;;3.78;2.90;;;;;;;17.23;51.04;102402.66;10410029;28;20276;-62
2024/01/30 00:55:54;;;;;;;6.68;3.60;;;;;;;17.20;51.72;102406.63;10408870;28;20037;-61
2024/01/30 01:00:54;;;;;;;3.93;3.17;;;;;;;17.23;52.03;102397.28;10409474;28;20116;-61
2024/01/30 01:05:55;;;;;;;4.63;3.33;;;;;;;17.24;51.58;102397.03;10408822;28;20379;-61
2024/01/30 01:10:55;;;;;;;4.97;2.97;;;;;;;17.23;51.23;102395.41;10420361;28;20813;-61
2024/01/30 01:15:55;;;;;;;4.93;3.10;;;;;;;17.25;50.54;102389.81;10408333;28;20284;-61
2024/01/30 01:20:56;;;;;;;4.70;3.30;;;;;;;17.25;51.39;102400.53;10413396;28;20315;-61
2024/01/30 01:25:56;;;;;;;5.13;2.80;;;;;;;17.26;50.97;102394.09;10408311;28;20334;-62
2024/01/30 01:31:01;;;;;;;5.05;2.95;;;;;;;17.23;51.85;102392.72;10431322;28;20036;-61
2024/01/30 01:36:02;;;;;;;4.75;3.17;;;;;;;17.19;51.67;102380.88;10410632;28;20033;-61
2024/01/30 01:41:02;;;;;;;4.88;3.63;;;;;;;17.19;51.58;102372.84;10436242;28;20036;-61
2024/01/30 01:46:03;;;;;;;3.85;2.83;;;;;;;17.20;50.88;102370.97;10448064;28;20523;-60
2024/01/30 01:51:03;;;;;;;4.60;3.33;;;;;;;17.21;52.02;102369.91;10448013;28;20048;-61
2024/01/30 01:56:04;;;;;;;6.05;3.55;;;;;;;17.20;50.88;102363.75;10448984;28;20036;-61
2024/01/30 02:01:05;;;;;;;4.00;2.60;;;;;;;17.21;50.45;102370.72;10447947;28;20059;-61
2024/01/30 02:06:05;;;;;;;4.28;2.90;;;;;;;17.23;51.62;102360.56;10447486;28;20104;-61
2024/01/30 02:11:06;;;;;;;4.97;3.00;;;;;;;17.19;51.73;102359.44;10426868;28;20091;-61
2024/01/30 02:16:06;;;;;;;4.70;3.22;;;;;;;17.20;50.62;102361.06;10406149;28;20664;-61
2024/01/30 02:21:06;;;;;;;4.80;3.40;;;;;;;17.22;50.61;102350.09;10407750;28;20032;-61
2024/01/30 02:26:07;;;;;;;4.23;2.53;;;;;;;17.20;51.66;102353.03;10408851;28;20300;-61
2024/01/30 02:31:07;;;;;;;3.87;2.63;;;;;;;17.25;50.63;102352.28;10440408;28;20305;-61
2024/01/30 02:36:07;;;;;;;4.53;3.08;;;;;;;17.25;50.38;102355.75;10414561;28;20310;-60
2024/01/30 02:41:08;;;;;;;3.70;2.55;;;;;;;17.22;51.60;102358.13;10414651;28;20032;-61
2024/01/30 02:46:08;;;;;;;4.20;3.10;;;;;;;17.23;50.12;102343.66;10413944;28;20033;-61
2024/01/30 02:51:09;;;;;;;3.43;2.33;;;;;;;17.23;51.78;102347.16;10414169;28;20279;-61
2024/01/30 02:56:10;;;;;;;3.67;3.22;;;;;;;17.22;51.50;102358.13;10413634;28;20271;-62
2024/01/30 03:01:10;;;;;;;3.95;2.50;;;;;;;17.21;51.17;102341.25;10414116;28;20381;-61
2024/01/30 03:06:10;;;;;;;4.50;3.20;;;;;;;17.22;50.39;102334.00;10413269;28;20025;-61
2024/01/30 03:11:11;;;;;;;4.03;3.15;;;;;;;17.22;50.50;102334.00;10426322;28;20679;-61
2024/01/30 03:16:11;;;;;;;5.73;2.80;;;;;;;17.22;50.41;102326.78;10413032;28;20037;-61
2024/01/30 03:21:11;;;;;;;4.00;3.53;;;;;;;17.21;50.33;102321.66;10413341;28;20632;-61
2024/01/30 03:26:12;;;;;;;4.57;2.80;;;;;;;17.23;51.63;102309.63;10412528;28;20029;-61
2024/01/30 03:31:14;;;;;;;4.47;2.88;;;;;;;17.24;50.71;102307.75;10439426;28;20769;-61
2024/01/30 03:36:15;;;;;;;3.22;2.50;;;;;;;17.27;50.51;102303.78;10411965;28;20187;-61
2024/01/30 03:41:15;;;;;;;4.70;3.08;;;;;;;17.25;50.36;102287.94;10410975;28;20022;-61
2024/01/30 03:46:16;;;;;;;3.53;2.60;;;;;;;17.24;50.71;102289.00;10411825;28;20393;-61
2024/01/30 03:51:16;;;;;;;3.17;2.60;;;;;;;17.23;50.20;102293.56;10411917;28;20283;-61
2024/01/30 03:56:17;;;;;;;3.75;2.70;;;;;;;17.22;51.15;102299.97;10411339;28;20029;-61
2024/01/30 04:01:17;;;;;;;3.70;2.58;;;;;;;17.25;51.46;102299.47;10411522;28;20029;-61
2024/01/30 04:06:17;;;;;;;4.30;3.35;;;;;;;17.23;51.06;102300.78;10413639;28;20108;-61
2024/01/30 04:11:20;;;;;;;3.40;2.83;;;;;;;17.23;50.21;102300.78;10430824;28;20028;-61
2024/01/30 04:16:22;;;;;;;3.53;3.05;;;;;;;17.24;50.42;102297.03;10435768;28;20287;-62
2024/01/30 04:21:22;;;;;;;5.35;3.08;;;;;;;17.30;51.25;102301.44;10423646;28;20079;-63
2024/01/30 04:26:23;;;;;;;6.00;3.00;;;;;;;17.34;50.90;102302.53;10422988;28;20028;-62
2024/01/30 04:31:23;;;;;;;4.68;2.60;;;;;;;17.32;51.62;102296.63;10425752;28;20024;-62
2024/01/30 04:36:24;;;;;;;4.27;3.53;;;;;;;17.36;50.05;102284.34;10422535;28;20024;-62
2024/01/30 04:41:26;;;;;;;4.57;3.27;;;;;;;17.40;51.04;102290.81;10419521;28;20276;-61
2024/01/30 04:46:26;;;;;;;5.13;3.50;;;;;;;17.41;50.70;102288.97;10413097;28;20288;-59
2024/01/30 04:51:26;;;;;;;3.60;2.83;;;;;;;17.37;52.26;102277.91;10426595;28;20033;-60
2024/01/30 04:56:27;;;;;;;3.80;3.10;;;;;;;17.35;51.41;102277.34;10447554;28;20075;-60
2024/01/30 05:01:27;;;;;;;4.47;3.13;;;;;;;17.31;51.06;102265.50;10447101;28;20855;-61
2024/01/30 05:06:28;;;;;;;3.35;2.83;;;;;;;17.30;51.49;102265.75;10447279;28;20349;-61
2024/01/30 05:11:28;;;;;;;3.33;3.03;;;;;;;17.31;51.65;102267.38;10421407;28;20063;-61
2024/01/30 05:16:28;;;;;;;3.93;2.90;;;;;;;17.28;50.94;102266.00;10406039;28;20482;-60
2024/01/30 05:21:29;;;;;;;4.13;3.55;;;;;;;17.28;50.87;102274.03;10406131;28;20322;-61
2024/01/30 05:26:30;;;;;;;5.73;3.00;;;;;;;17.27;51.07;102276.97;10405719;28;20636;-60
2024/01/30 05:31:30;;;;;;;3.15;2.30;;;;;;;17.25;51.76;102275.34;10432013;28;20750;-60
2024/01/30 05:36:30;;;;;;;3.70;2.60;;;;;;;17.28;50.71;102267.84;10405591;28;20045;-61
2024/01/30 05:41:31;;;;;;;5.07;3.30;;;;;;;17.27;51.89;102259.00;10415668;28;20033;-60
2024/01/30 05:46:31;;;;;;;3.73;2.80;;;;;;;17.25;50.72;102263.81;10405139;28;20284;-60
2024/01/30 05:51:31;;;;;;;4.63;3.63;;;;;;;17.25;50.22;102256.59;10404918;28;20276;-61
2024/01/30 05:56:31;;;;;;;4.03;3.00;;;;;;;17.24;50.94;102251.47;10405173;28;20751;-61
2024/01/30 06:01:32;;;;;;;3.73;2.63;;;;;;;17.24;51.59;102270.22;10415771;28;20330;-58
2024/01/30 06:06:32;;;;;;;4.88;3.10;;;;;;;17.26;51.43;102273.47;10413132;28;20295;-58
2024/01/30 06:11:33;;;;;;;4.55;3.50;;;;;;;17.24;51.39;102268.38;10409238;28;20120;-59
2024/01/30 06:16:33;;;;;;;6.65;3.58;;;;;;;17.29;52.02;102278.38;10454640;28;20045;-60
2024/01/30 06:21:36;;;;;;;5.87;2.27;;;;;;;17.40;52.15;102271.22;10456865;28;20025;-61
2024/01/30 06:26:36;;;;;;;5.32;3.75;;;;;;;17.37;52.28;102277.09;10438389;28;20299;-61
2024/01/30 06:31:41;;;;;;;8.73;3.22;;;;;;;17.38;53.13;102281.41;10414645;28;20719;-61
2024/01/30 06:36:42;;;;;;;10.57;3.95;;;;;;;17.35;53.77;102284.59;10414750;28;20108;-61
2024/01/30 06:41:42;;;;;;;23.88;5.28;;;;;;;17.27;53.51;102283.13;10414411;28;20105;-59
2024/01/30 06:46:42;;;;;;;17.10;4.30;;;;;;;17.26;52.03;102268.09;10414342;28;20048;-58
2024/01/30 06:51:43;;;;;;;12.10;4.50;;;;;;;17.21;53.11;102274.22;10421337;28;20029;-59
2024/01/30 06:56:43;;;;;;;14.00;4.22;;;;;;;17.17;53.37;102281.16;10430681;28;20021;-58
2024/01/30 07:01:43;;;;;;;19.88;5.18;;;;;;;17.15;52.16;102293.97;10428852;28;20853;-58
2024/01/30 07:06:44;;;;;;;29.43;5.90;;;;;;;17.11;53.17;102287.50;10431089;28;20634;-59
2024/01/30 07:11:44;;;;;;;49.42;9.10;;;;;;;17.02;53.40;102293.50;10429118;28;20283;-58
2024/01/30 07:16:45;;;;;;;31.77;9.23;;;;;;;17.04;53.06;102294.88;10413029;28;20045;-59
2024/01/30 07:21:46;;;;;;;24.70;5.88;;;;;;;17.06;52.94;102316.09;10412413;28;20017;-58
2024/01/30 07:26:46;;;;;;;16.98;6.05;;;;;;;17.10;53.11;102304.63;10408956;28;20026;-58
2024/01/30 07:31:46;;;;;;;18.63;5.33;;;;;;;17.10;53.02;102298.47;10411985;28;20029;-58
2024/01/30 07:36:47;;;;;;;14.57;4.90;;;;;;;17.05;52.83;102301.06;10412825;28;20280;-58
2024/01/30 07:41:47;;;;;;;19.15;5.13;;;;;;;17.02;52.14;102307.72;10418847;28;20825;-57
2024/01/30 07:46:47;;;;;;;18.13;6.50;;;;;;;17.05;52.01;102315.28;10428663;28;20025;-58
2024/01/30 07:51:48;;;;;;;16.33;5.57;;;;;;;17.06;51.72;102322.28;10420708;28;20286;-58
2024/01/30 07:56:48;;;;;;;10.98;4.65;;;;;;;17.06;53.04;102326.81;10410180;28;20021;-59
2024/01/30 08:02:03;;;;;;;11.25;4.57;;;;;;;17.09;51.41;102329.81;10410921;28;20064;-59
2024/01/30 08:07:04;;;;;;;14.05;3.75;;;;;;;17.08;51.73;102344.28;10438540;28;20028;-59
2024/01/30 08:12:04;;;;;;;12.30;5.57;;;;;;;17.06;51.13;102349.06;10434248;28;20017;-59
2024/01/30 08:17:05;;;;;;;14.02;5.25;;;;;;;17.05;52.24;102355.50;10410067;28;20580;-58
2024/01/30 08:22:05;;;;;;;9.90;4.17;;;;;;;17.04;52.09;102350.34;10409212;28;20029;-59
2024/01/30 08:27:06;;;;;;;9.27;4.67;;;;;;;17.05;51.53;102350.13;10408674;28;20291;-59
2024/01/30 08:32:07;;;;;;;11.80;4.18;;;;;;;17.08;51.58;102343.47;10435208;28;20272;-59
2024/01/30 08:37:07;;;;;;;10.00;5.00;;;;;;;17.04;51.14;102337.75;10409295;28;20028;-59
2024/01/30 08:42:07;;;;;;;10.98;3.78;;;;;;;17.05;51.92;102344.78;10408464;28;20033;-59
2024/01/30 08:47:08;;;;;;;7.82;4.68;;;;;;;17.06;51.46;102345.56;10407722;28;20026;-59
2024/01/30 08:52:08;;;;;;;9.30;3.70;;;;;;;17.04;50.93;102348.47;10408230;28;20085;-59
2024/01/30 08:57:08;;;;;;;12.90;5.60;;;;;;;17.00;51.50;102352.72;10408103;28;20013;-59
2024/01/30 09:02:10;;;;;;;5.47;3.80;;;;;;;17.03;51.92;102343.38;10408297;28;20268;-58
2024/01/30 09:07:10;;;;;;;5.95;3.72;;;;;;;17.09;51.06;102353.13;10410672;28;20382;-59
2024/01/30 09:12:11;;;;;;;8.02;3.45;;;;;;;17.14;51.27;102343.28;10417516;28;20472;-60
2024/01/30 09:17:12;;;;;;;7.78;3.75;;;;;;;17.13;51.56;102354.25;10407975;28;20056;-59
2024/01/30 09:22:12;;;;;;;7.18;3.85;;;;;;;17.12;51.83;102366.03;10407534;28;20657;-58
2024/01/30 09:27:12;;;;;;;7.93;4.10;;;;;;;17.08;51.53;102364.91;10407912;28;20021;-59
2024/01/30 09:32:13;;;;;;;7.57;4.57;;;;;;;17.06;51.38;102356.31;10433479;28;20276;-59
2024/01/30 09:37:15;;;;;;;5.30;3.33;;;;;;;17.06;51.57;102357.09;10413554;28;20268;-59
2024/01/30 09:42:28;;;;;;;7.35;3.72;;;;;;;17.06;50.50;102357.09;10415478;28;20317;-59
2024/01/30 09:47:43;;;;;;;4.50;2.95;;;;;;;17.08;52.11;102359.53;10414299;28;20029;-59
2024/01/30 09:52:47;;;;;;;10.18;3.47;;;;;;;17.09;50.82;102366.53;10415195;28;20112;-59
2024/01/30 09:57:47;;;;;;;5.40;3.58;;;;;;;17.10;51.10;102363.59;10415188;28;20029;-58
2024/01/30 10:02:48;;;;;;;6.60;3.00;;;;;;;17.08;50.98;102370.25;10415210;28;20025;-59
2024/01/30 10:07:55;;;;;;;7.43;3.88;;;;;;;17.09;52.10;102382.59;10422655;28;20358;-58
2024/01/30 10:12:55;;;;;;;4.85;2.92;;;;;;;17.08;51.32;102381.78;10417852;28;20088;-59
2024/01/30 10:17:55;;;;;;;4.63;3.45;;;;;;;17.10;51.72;102378.88;10413616;28;20358;-59
2024/01/30 10:22:56;;;;;;;11.03;3.90;;;;;;;17.12;50.36;102376.75;10413717;28;20037;-59
2024/01/30 10:27:56;;;;;;;5.68;2.97;;;;;;;17.13;50.86;102376.50;10413965;28;20601;-58
2024/01/30 10:32:58;;;;;;;4.78;3.10;;;;;;;17.11;50.91;102388.53;10439107;28;20056;-59
2024/01/30 10:37:58;;;;;;;9.77;3.07;;;;;;;17.11;51.93;102380.47;10413592;28;20021;-59
2024/01/30 10:43:01;;;;;;;6.20;3.30;;;;;;;17.08;51.89;102383.66;10412385;28;20600;-59
2024/01/30 10:48:03;;;;;;;6.97;4.10;;;;;;;17.07;51.23;102384.72;10410957;28;20026;-59
2024/01/30 10:53:04;;;;;;;5.53;3.22;;;;;;;17.10;50.45;102378.88;10412121;28;20149;-59
2024/01/30 10:58:04;;;;;;;4.87;2.80;;;;;;;17.09;50.95;102385.28;10411698;28;20136;-59
2024/01/30 11:03:05;;;;;;;4.03;2.58;;;;;;;17.12;50.80;102404.34;10411091;28;20279;-59
2024/01/30 11:08:12;;;;;;;4.13;2.67;;;;;;;17.08;51.35;102389.84;10422843;28;20060;-59
2024/01/30 11:13:13;;;;;;;5.30;2.85;;;;;;;17.10;52.72;102381.53;10412876;28;20532;-59
2024/01/30 11:18:26;;;;;;;6.15;3.00;;;;;;;17.13;51.78;102389.09;10413367;28;20028;-60
2024/01/30 11:23:26;;;;;;;7.07;3.33;;;;;;;17.13;52.06;102397.13;10412724;28;20118;-58
2024/01/30 11:28:33;;;;;;;6.00;3.50;;;;;;;17.09;51.37;102390.66;10412739;28;20022;-59
2024/01/30 11:33:34;;;;;;;3.85;2.80;;;;;;;17.05;51.82;102390.31;10412396;28;20040;-59
2024/01/30 11:38:34;;;;;;;6.43;3.35;;;;;;;17.10;52.21;102382.34;10411979;28;20531;-59
2024/01/30 11:43:34;;;;;;;4.28;2.75;;;;;;;17.12;52.21;102372.19;10412159;28;20033;-59
2024/01/30 11:48:35;;;;;;;10.63;3.40;;;;;;;17.04;53.05;102377.16;10412195;28;20057;-59
2024/01/30 11:53:35;;;;;;;6.03;2.90;;;;;;;17.06;51.98;102391.94;10419928;28;20076;-58
2024/01/30 11:58:35;;;;;;;8.10;3.87;;;;;;;17.11;53.57;102386.66;10431110;28;20341;-59
2024/01/30 12:03:36;;;;;;;9.10;3.77;;;;;;;17.07;53.40;102393.56;10425988;28;20283;-59
2024/01/30 12:08:36;;;;;;;4.75;2.90;;;;;;;17.03;53.09;102389.72;10427421;28;20816;-58
2024/01/30 12:13:36;;;;;;;6.13;2.90;;;;;;;17.01;52.16;102383.81;10412779;28;20500;-59
2024/01/30 12:18:37;;;;;;;6.13;3.73;;;;;;;17.01;52.54;102399.09;10409675;28;20342;-59
2024/01/30 12:23:37;;;;;;;4.53;2.93;;;;;;;17.03;51.87;102394.28;10410422;28;20666;-59
2024/01/30 12:28:47;;;;;;;4.93;2.58;;;;;;;17.02;52.93;102422.94;10409430;28;20282;-59
2024/01/30 12:33:49;;;;;;;3.92;2.65;;;;;;;17.03;52.46;102434.47;10436135;28;20037;-59
2024/01/30 12:38:50;;;;;;;4.93;2.90;;;;;;;17.02;52.32;102443.56;10410105;28;20036;-59
2024/01/30 12:43:50;;;;;;;6.85;2.88;;;;;;;16.98;51.88;102450.50;10409738;28;20044;-59
2024/01/30 12:48:50;;;;;;;4.13;2.55;;;;;;;17.01;53.21;102450.00;10409958;28;20025;-59
2024/01/30 12:53:51;;;;;;;7.93;2.33;;;;;;;17.01;52.19;102455.34;10411886;28;20021;-58
2024/01/30 12:58:51;;;;;;;7.15;2.80;;;;;;;16.99;51.86;102465.50;10441775;28;20283;-59
2024/01/30 13:03:52;;;;;;;5.80;2.83;;;;;;;16.99;52.43;102469.00;10447557;28;20036;-58
2024/01/30 13:08:52;;;;;;;5.10;2.17;;;;;;;17.00;52.34;102465.25;10445150;28;20318;-58
2024/01/30 13:13:52;;;;;;;5.28;2.45;;;;;;;16.99;52.73;102466.31;10407427;28;20099;-58
2024/01/30 13:18:55;;;;;;;6.28;2.58;;;;;;;16.95;51.86;102471.34;10439245;28;20032;-57
2024/01/30 13:23:55;;;;;;;8.27;2.85;;;;;;;16.93;53.49;102475.34;10408413;28;20715;-56
2024/01/30 13:28:56;;;;;;;7.40;2.15;;;;;;;16.97;52.29;102481.03;10408671;28;20021;-57
2024/01/30 13:33:56;;;;;;;8.53;3.00;;;;;;;16.99;52.35;102495.78;10444135;28;20028;-57
2024/01/30 13:38:56;;;;;;;13.63;3.13;;;;;;;17.15;52.90;102504.91;10449767;28;20739;-58
2024/01/30 13:43:57;;;;;;;13.38;3.38;;;;;;;17.10;53.99;102500.28;10449095;28;20271;-57
2024/01/30 13:48:57;;;;;;;9.88;3.47;;;;;;;17.11;52.95;102506.44;10442313;28;20033;-59
2024/01/30 13:53:57;;;;;;;15.10;3.43;;;;;;;17.09;54.69;102497.84;10408171;28;20025;-58
2024/01/30 13:58:58;;;;;;;8.30;3.17;;;;;;;17.13;53.50;102504.34;10408187;28;20300;-57
2024/01/30 14:03:58;;;;;;;11.38;3.65;;;;;;;17.16;53.77;102504.66;10408013;28;20030;-59
2024/01/30 14:08:59;;;;;;;13.48;4.93;;;;;;;17.13;54.43;102512.38;10420105;28;20120;-58
2024/01/30 14:13:59;;;;;;;15.53;3.03;;;;;;;17.10;53.24;102508.31;10407847;28;20065;-58
2024/01/30 14:18:59;;;;;;;10.60;2.85;;;;;;;17.05;53.30;102526.16;10407664;28;20280;-59
2024/01/30 14:23:59;;;;;;;6.18;2.70;;;;;;;17.01;52.82;102530.38;10422329;28;20025;-59
2024/01/30 14:29:00;;;;;;;7.70;2.87;;;;;;;17.03;53.31;102529.09;10428903;28;20545;-60
2024/01/30 14:34:00;;;;;;;11.00;3.28;;;;;;;16.99;54.32;102527.13;10455387;28;20279;-59
2024/01/30 14:39:01;;;;;;;9.77;3.33;;;;;;;17.00;54.05;102539.47;10430470;28;20076;-59
2024/01/30 14:44:01;;;;;;;11.20;3.40;;;;;;;16.97;53.98;102546.13;10432296;28;20029;-59
2024/01/30 14:49:05;;;;;;;16.33;3.60;;;;;;;16.99;54.15;102553.94;10450787;28;20267;-58
2024/01/30 14:54:05;;;;;;;16.90;3.50;;;;;;;16.95;53.58;102545.56;10455907;28;20017;-58
2024/01/30 14:59:06;;;;;;;12.30;3.27;;;;;;;17.11;54.97;102547.47;10455121;28;20083;-59
2024/01/30 15:04:06;;;;;;;13.55;3.35;;;;;;;17.07;54.41;102548.19;10455184;28;20284;-59
2024/01/30 15:09:06;;;;;;;11.13;4.93;;;;;;;17.09;53.34;102554.94;10435891;28;20076;-60
2024/01/30 15:14:07;;;;;;;75.20;21.90;;;;;;;17.19;54.22;102565.03;10413075;28;20303;-60
2024/01/30 15:19:07;;;;;;;42.10;14.65;;;;;;;17.15;54.82;102569.22;10412892;28;20344;-59
2024/01/30 15:24:08;;;;;;;47.33;10.73;;;;;;;17.21;57.76;102576.31;10412885;28;20083;-60
2024/01/30 15:29:08;;;;;;;30.95;8.60;;;;;;;17.31;54.37;102581.06;10412713;28;20060;-61
2024/01/30 15:34:09;;;;;;;28.83;7.97;;;;;;;17.29;53.68;102591.22;10413319;28;20048;-61
2024/01/30 15:39:11;;;;;;;27.30;6.90;;;;;;;17.34;54.54;102604.72;10412264;28;20731;-61
2024/01/30 15:44:11;;;;;;;15.70;6.15;;;;;;;17.32;54.29;102606.81;10418751;28;20033;-60
2024/01/30 15:49:11;;;;;;;16.80;5.20;;;;;;;17.30;54.10;102617.78;10439020;28;20029;-60
2024/01/30 15:54:12;;;;;;;15.40;5.32;;;;;;;17.27;53.68;102625.47;10437232;28;20271;-60
2024/01/30 15:59:12;;;;;;;17.97;5.43;;;;;;;17.27;53.58;102637.00;10432330;28;20036;-60
2024/01/30 16:04:12;;;;;;;13.67;4.73;;;;;;;17.24;52.66;102637.50;10419513;28;20345;-61
2024/01/30 16:09:14;;;;;;;15.43;4.87;;;;;;;17.20;53.60;102647.09;10414189;28;20291;-61
2024/01/30 16:14:14;;;;;;;10.35;4.65;;;;;;;17.16;52.76;102662.00;10416668;28;20300;-60
2024/01/30 16:19:15;;;;;;;8.25;3.75;;;;;;;17.15;52.54;102663.88;10426210;28;20070;-60
2024/01/30 16:24:15;;;;;;;11.63;4.60;;;;;;;17.15;52.75;102669.22;10425783;28;20456;-60
2024/01/30 16:29:15;;;;;;;16.75;4.47;;;;;;;17.14;53.41;102672.16;10428384;28;20337;-61
2024/01/30 16:34:16;;;;;;;10.23;4.13;;;;;;;17.16;53.30;102678.06;10432816;28;20021;-60
2024/01/30 16:39:16;;;;;;;17.87;5.03;;;;;;;17.14;52.79;102677.50;10409601;28;20771;-60
2024/01/30 16:44:16;;;;;;;12.40;3.40;;;;;;;17.16;54.03;102691.47;10418817;28;20299;-60
2024/01/30 16:49:17;;;;;;;12.60;3.70;;;;;;;17.14;52.93;102696.28;10434892;28;20025;-60
2024/01/30 16:54:18;;;;;;;10.47;3.63;;;;;;;17.14;52.18;102709.69;10436102;28;20279;-61
2024/01/30 16:59:19;;;;;;;10.50;3.60;;;;;;;17.17;53.14;102714.59;10432928;28;21068;-61
2024/01/30 17:04:21;;;;;;;5.28;3.00;;;;;;;17.15;52.98;102719.34;10409762;28;20032;-62
2024/01/30 17:09:22;;;;;;;10.00;4.00;;;;;;;17.12;52.56;102720.63;10428458;28;20074;-61
2024/01/30 17:14:22;;;;;;;6.90;2.95;;;;;;;17.15;52.39;102738.91;10442075;28;20589;-61
2024/01/30 17:19:23;;;;;;;10.47;2.73;;;;;;;17.17;52.76;102744.88;10421340;28;20041;-61
2024/01/30 17:24:23;;;;;;;10.97;3.20;;;;;;;17.17;52.41;102754.78;10427199;28;20310;-61
2024/01/30 17:29:23;;;;;;;7.95;2.72;;;;;;;17.32;53.95;102752.41;10426531;28;20283;-62
2024/01/30 17:34:24;;;;;;;12.17;3.40;;;;;;;17.45;56.69;102762.06;10437419;28;20049;-62
2024/01/30 17:39:24;;;;;;;9.37;2.60;;;;;;;17.62;55.94;102767.47;10407120;28;20276;-60
2024/01/30 17:44:24;;;;;;;8.73;3.13;;;;;;;17.65;54.97;102762.47;10407254;28;20288;-59
2024/01/30 17:49:29;;;;;;;7.53;3.00;;;;;;;17.72;55.14;102773.06;10419547;28;20048;-62
2024/01/30 17:54:29;;;;;;;15.52;2.95;;;;;;;17.69;55.72;102785.09;10407163;28;20564;-61
2024/01/30 17:59:30;;;;;;;8.53;2.30;;;;;;;17.52;54.60;102798.44;10415789;28;20029;-61
2024/01/30 18:04:31;;;;;;;9.40;3.20;;;;;;;17.40;54.59;102808.34;10416490;28;20782;-59
2024/01/30 18:09:32;;;;;;;9.88;3.45;;;;;;;17.29;54.29;102814.56;10436614;28;20947;-60
2024/01/30 18:14:32;;;;;;;6.90;2.75;;;;;;;17.25;54.30;102821.44;10427951;28;20033;-60
2024/01/30 18:19:32;;;;;;;5.70;2.53;;;;;;;17.22;54.24;102836.13;10415045;28;20021;-60
2024/01/30 18:24:33;;;;;;;12.52;3.35;;;;;;;17.16;54.65;102841.59;10432336;28;20134;-60
2024/01/30 18:29:33;;;;;;;6.60;2.23;;;;;;;17.16;53.88;102836.25;10434200;28;20221;-61
2024/01/30 18:34:33;;;;;;;7.30;2.13;;;;;;;17.15;54.58;102843.47;10444684;28;20276;-61
2024/01/30 18:39:34;;;;;;;7.33;2.93;;;;;;;17.16;53.77;102861.19;10438373;28;20287;-61
2024/01/30 18:44:34;;;;;;;13.43;2.60;;;;;;;17.20;53.52;102862.38;10414222;28;20663;-61
2024/01/30 18:49:34;;;;;;;7.10;2.53;;;;;;;17.23;53.91;102866.44;10432374;28;20276;-62
2024/01/30 18:54:35;;;;;;;5.03;1.75;;;;;;;17.20;52.86;102870.41;10430735;28;20298;-61
2024/01/30 18:59:35;;;;;;;4.07;1.85;;;;;;;17.20;54.18;102870.41;10420671;28;20029;-62
2024/01/30 19:04:36;;;;;;;4.60;1.58;;;;;;;17.24;52.82;102884.97;10413559;28;20022;-62
2024/01/30 19:09:37;;;;;;;6.40;2.20;;;;;;;17.27;53.63;102886.34;10414846;28;20018;-61
2024/01/30 19:14:38;;;;;;;5.22;1.90;;;;;;;17.27;53.73;102897.09;10419674;28;20292;-61
2024/01/30 19:19:39;;;;;;;8.32;1.83;;;;;;;17.29;53.83;102913.78;10412756;28;20021;-61
2024/01/30 19:24:40;;;;;;;3.63;1.65;;;;;;;17.29;53.57;102904.91;10438195;28;20029;-60
2024/01/30 19:29:40;;;;;;;5.23;1.40;;;;;;;17.27;52.83;102910.47;10434057;28;20457;-61
2024/01/30 19:34:40;;;;;;;8.83;1.93;;;;;;;17.29;53.51;102912.97;10423422;28;20286;-61
2024/01/30 19:39:43;;;;;;;6.90;1.65;;;;;;;17.27;53.04;102923.06;10411743;28;20616;-60
2024/01/30 19:44:44;;;;;;;7.63;3.42;;;;;;;17.32;54.09;102939.31;10422461;28;20087;-60
2024/01/30 19:49:44;;;;;;;6.15;2.42;;;;;;;17.43;52.80;102958.06;10450144;28;20029;-61
2024/01/30 19:54:45;;;;;;;8.67;2.10;;;;;;;17.42;54.25;102950.28;10422138;28;20017;-61
2024/01/30 19:59:45;;;;;;;8.02;3.67;;;;;;;17.35;53.76;102955.72;10409562;28;21113;-61
2024/01/30 20:04:45;;;;;;;6.43;2.50;;;;;;;17.33;54.16;102962.38;10424089;28;20562;-61
2024/01/30 20:09:47;;;;;;;4.43;2.67;;;;;;;17.29;54.69;102958.53;10433347;28;20342;-62
2024/01/30 20:14:47;;;;;;;3.58;2.25;;;;;;;17.22;53.95;102966.69;10409364;28;20421;-61
2024/01/30 20:19:52;;;;;;;4.47;2.43;;;;;;;17.15;54.67;102980.19;10410377;28;20032;-61
2024/01/30 20:24:53;;;;;;;7.15;2.33;;;;;;;17.12;54.36;102986.00;10411790;28;20303;-61
2024/01/30 20:29:54;;;;;;;7.70;2.58;;;;;;;17.10;53.98;102998.00;10435372;28;20084;-60
2024/01/30 20:34:57;;;;;;;5.88;2.00;;;;;;;17.09;54.67;103009.78;10413821;28;20033;-61
2024/01/30 20:39:57;;;;;;;5.03;2.40;;;;;;;17.14;55.00;103012.59;10418740;28;20060;-60
2024/01/30 20:44:58;;;;;;;5.10;2.00;;;;;;;17.13;54.27;103017.13;10425555;28;20100;-59
2024/01/30 20:49:58;;;;;;;4.82;2.22;;;;;;;17.13;54.72;103016.31;10426711;28;20271;-60
2024/01/30 20:54:59;;;;;;;4.05;2.20;;;;;;;17.12;54.59;103031.59;10424828;28;20078;-60
2024/01/30 20:59:59;;;;;;;3.67;2.08;;;;;;;17.10;53.27;103035.53;10423946;28;20048;-60
2024/01/30 21:04:59;;;;;;;2.78;1.63;;;;;;;17.06;54.00;103032.50;10419379;28;20018;-61
2024/01/30 21:10:00;;;;;;;4.00;1.50;;;;;;;17.10;53.91;103033.69;10421887;28;20113;-60
2024/01/30 21:15:00;;;;;;;3.07;1.77;;;;;;;17.13;52.87;103043.13;10409407;28;20430;-61
2024/01/30 21:20:01;;;;;;;3.70;1.57;;;;;;;17.15;54.07;103043.69;10394843;28;20330;-60
2024/01/30 21:25:02;;;;;;;3.88;1.80;;;;;;;17.21;53.35;103053.53;10409104;28;20315;-60
2024/01/30 21:30:03;;;;;;;5.50;1.77;;;;;;;17.21;52.79;103050.84;10408607;28;20021;-60
2024/01/30 21:35:04;;;;;;;6.80;1.67;;;;;;;17.21;52.74;103059.69;10422890;28;20372;-61
2024/01/30 21:40:05;;;;;;;3.42;1.70;;;;;;;17.23;53.47;103060.28;10421026;28;20401;-60
2024/01/30 21:45:06;;;;;;;4.00;1.38;;;;;;;17.26;52.52;103056.31;10422330;28;20056;-59
2024/01/30 21:50:07;;;;;;;3.40;1.75;;;;;;;17.27;53.00;103066.00;10422122;28;20044;-61
2024/01/30 21:55:08;;;;;;;3.05;1.15;;;;;;;17.26;51.99;103077.78;10422253;28;20640;-61
2024/01/30 22:00:10;;;;;;;2.72;0.93;;;;;;;17.29;52.89;103079.19;10422112;28;20065;-60
2024/01/30 22:05:10;;;;;;;3.35;1.17;;;;;;;17.26;52.24;103075.09;10420415;28;20022;-61
2024/01/30 22:10:10;;;;;;;4.85;1.20;;;;;;;17.32;52.99;103086.78;10433811;28;20025;-61
2024/01/30 22:15:11;;;;;;;3.07;1.30;;;;;;;17.29;52.78;103088.06;10461381;28;20045;-61
2024/01/30 22:20:11;;;;;;;1.45;0.82;;;;;;;17.29;52.27;103092.59;10461766;28;20299;-61
2024/01/30 22:25:11;;;;;;;3.30;1.40;;;;;;;17.27;52.83;103100.84;10433093;28;20084;-60
2024/01/30 22:30:12;;;;;;;4.07;1.63;;;;;;;17.27;52.30;103105.41;10420770;28;20728;-60
2024/01/30 22:35:13;;;;;;;3.00;1.20;;;;;;;17.28;52.24;103113.22;10419891;28;20120;-60
2024/01/30 22:40:14;;;;;;;2.22;1.10;;;;;;;17.26;52.00;103118.00;10421427;28;20064;-60
2024/01/30 22:45:14;;;;;;;5.45;1.50;;;;;;;17.27;53.29;103113.44;10413383;28;20567;-60
2024/01/30 22:50:15;;;;;;;3.30;1.63;;;;;;;17.27;52.31;103108.09;10413629;28;20057;-60
2024/01/30 22:55:15;;;;;;;3.78;1.40;;;;;;;17.27;51.95;103113.44;10412974;28;20280;-60